KXNA/XNA METAR and TAF weather

Enter ICAO airport designator
Station Type Date Time Source
KXNA METAR 2019/05/20 09:53 UTC NOAA

KXNA 200953Z AUTO 01004KT 10SM CLR 11/09 A3004 RMK AO2 SLP165 T01060089


Station Type Date Time Source
KXNA Decoded METAR 2019/05/20 09:53 UTC NOAA

NORTHWEST ARKANSAS REGIONAL, AR, United States (KXNA) 36-17N 94-18W
May 20, 2019 - 05:53 AM EDT / 2019.05.20 0953 UTC
Wind: from the N (010 degrees) at 5 MPH (4 KT):0
Visibility: 10 mile(s):0
Sky conditions: clear
Temperature: 51.1 F (10.6 C)
Dew Point: 48.0 F (8.9 C)
Relative Humidity: 89%
Pressure (altimeter): 30.04 in. Hg (1017 hPa)
ob: KXNA 200953Z AUTO 01004KT 10SM CLR 11/09 A3004 RMK AO2 SLP165 T01060089
cycle: 10

Station Type Date Time Source
KXNA TAF 2019/05/20 06:22 UTC NOAA

TAF KXNA 200520Z 2006/2106 VRB03KT P6SM SCT250
FM201400 12011KT P6SM BKN035
FM201800 14014G22KT P6SM BKN050 PROB30 2102/2106 VRB20G30KT 3SM +TSRA OVC030CB

Example: see airport list